sensor_id;sensor_type;location;lat;lon;timestamp;P1;durP1;ratioP1;P2;durP2;ratioP2
43994;SDS011;51687;52.160;5.298;2022-12-18T00:01:05;58.20;;;38.42;;
43994;SDS011;51687;52.160;5.298;2022-12-18T00:03:39;60.60;;;39.65;;
43994;SDS011;51687;52.160;5.298;2022-12-18T00:06:09;63.15;;;40.83;;
43994;SDS011;51687;52.160;5.298;2022-12-18T00:11:03;59.47;;;37.33;;
43994;SDS011;51687;52.160;5.298;2022-12-18T00:13:32;59.67;;;37.70;;
43994;SDS011;51687;52.160;5.298;2022-12-18T00:16:02;58.85;;;38.60;;
43994;SDS011;51687;52.160;5.298;2022-12-18T00:18:30;57.13;;;37.83;;
43994;SDS011;51687;52.160;5.298;2022-12-18T00:21:04;59.83;;;39.80;;
43994;SDS011;51687;52.160;5.298;2022-12-18T00:23:33;62.95;;;38.65;;
43994;SDS011;51687;52.160;5.298;2022-12-18T00:26:03;60.70;;;39.70;;
43994;SDS011;51687;52.160;5.298;2022-12-18T00:28:31;57.67;;;37.67;;
43994;SDS011;51687;52.160;5.298;2022-12-18T00:31:05;59.90;;;38.58;;
43994;SDS011;51687;52.160;5.298;2022-12-18T00:33:34;60.55;;;38.20;;
43994;SDS011;51687;52.160;5.298;2022-12-18T00:36:05;57.23;;;38.87;;
43994;SDS011;51687;52.160;5.298;2022-12-18T00:38:34;58.90;;;39.17;;
43994;SDS011;51687;52.160;5.298;2022-12-18T00:41:01;55.95;;;38.35;;
43994;SDS011;51687;52.160;5.298;2022-12-18T00:43:28;61.05;;;39.13;;
43994;SDS011;51687;52.160;5.298;2022-12-18T00:45:55;58.72;;;39.67;;
43994;SDS011;51687;52.160;5.298;2022-12-18T00:48:22;55.65;;;37.22;;
43994;SDS011;51687;52.160;5.298;2022-12-18T00:50:49;58.45;;;37.80;;
43994;SDS011;51687;52.160;5.298;2022-12-18T00:53:16;58.28;;;39.40;;
43994;SDS011;51687;52.160;5.298;2022-12-18T00:55:44;58.15;;;38.67;;
43994;SDS011;51687;52.160;5.298;2022-12-18T00:58:11;56.97;;;38.28;;
43994;SDS011;51687;52.160;5.298;2022-12-18T01:00:39;60.88;;;39.20;;
43994;SDS011;51687;52.160;5.298;2022-12-18T01:03:07;62.78;;;40.95;;
43994;SDS011;51687;52.160;5.298;2022-12-18T01:05:34;65.18;;;39.25;;
43994;SDS011;51687;52.160;5.298;2022-12-18T01:08:00;69.15;;;41.38;;
43994;SDS011;51687;52.160;5.298;2022-12-18T01:10:27;62.28;;;40.00;;
43994;SDS011;51687;52.160;5.298;2022-12-18T01:12:54;63.90;;;40.97;;
43994;SDS011;51687;52.160;5.298;2022-12-18T01:15:21;62.42;;;40.30;;
43994;SDS011;51687;52.160;5.298;2022-12-18T01:17:48;63.15;;;41.17;;
43994;SDS011;51687;52.160;5.298;2022-12-18T01:20:14;64.13;;;40.53;;
43994;SDS011;51687;52.160;5.298;2022-12-18T01:22:41;77.47;;;47.65;;
43994;SDS011;51687;52.160;5.298;2022-12-18T01:25:08;63.45;;;40.30;;
43994;SDS011;51687;52.160;5.298;2022-12-18T01:27:35;87.32;;;51.05;;
43994;SDS011;51687;52.160;5.298;2022-12-18T01:30:02;76.00;;;46.35;;
43994;SDS011;51687;52.160;5.298;2022-12-18T01:32:29;65.80;;;41.60;;
43994;SDS011;51687;52.160;5.298;2022-12-18T01:34:57;64.90;;;41.20;;
43994;SDS011;51687;52.160;5.298;2022-12-18T01:37:24;65.50;;;39.60;;
43994;SDS011;51687;52.160;5.298;2022-12-18T01:39:52;66.88;;;41.25;;
43994;SDS011;51687;52.160;5.298;2022-12-18T01:42:20;70.50;;;43.00;;
43994;SDS011;51687;52.160;5.298;2022-12-18T01:49:53;62.83;;;38.53;;
43994;SDS011;51687;52.160;5.298;2022-12-18T01:52:21;61.67;;;39.30;;
43994;SDS011;51687;52.160;5.298;2022-12-18T01:54:50;66.60;;;39.88;;
43994;SDS011;51687;52.160;5.298;2022-12-18T01:57:17;64.80;;;39.78;;
43994;SDS011;51687;52.160;5.298;2022-12-18T01:59:45;55.92;;;37.03;;
43994;SDS011;51687;52.160;5.298;2022-12-18T02:02:17;62.70;;;37.80;;
43994;SDS011;51687;52.160;5.298;2022-12-18T02:04:45;69.70;;;40.42;;
43994;SDS011;51687;52.160;5.298;2022-12-18T02:10:29;57.20;;;36.88;;
43994;SDS011;51687;52.160;5.298;2022-12-18T02:18:48;56.35;;;37.00;;
43994;SDS011;51687;52.160;5.298;2022-12-18T02:21:27;59.53;;;37.72;;
43994;SDS011;51687;52.160;5.298;2022-12-18T02:26:44;56.38;;;36.72;;
43994;SDS011;51687;52.160;5.298;2022-12-18T02:29:33;58.15;;;36.70;;
43994;SDS011;51687;52.160;5.298;2022-12-18T02:32:13;53.53;;;35.45;;
43994;SDS011;51687;52.160;5.298;2022-12-18T02:34:43;54.42;;;35.38;;
43994;SDS011;51687;52.160;5.298;2022-12-18T02:37:12;53.25;;;35.83;;
43994;SDS011;51687;52.160;5.298;2022-12-18T02:39:42;52.28;;;35.90;;
43994;SDS011;51687;52.160;5.298;2022-12-18T02:42:12;52.75;;;35.03;;
43994;SDS011;51687;52.160;5.298;2022-12-18T02:44:46;50.88;;;35.67;;
43994;SDS011;51687;52.160;5.298;2022-12-18T02:47:16;55.83;;;36.88;;
43994;SDS011;51687;52.160;5.298;2022-12-18T02:55:00;56.53;;;37.20;;
43994;SDS011;51687;52.160;5.298;2022-12-18T03:00:21;51.92;;;36.15;;
43994;SDS011;51687;52.160;5.298;2022-12-18T03:02:59;50.53;;;35.33;;
43994;SDS011;51687;52.160;5.298;2022-12-18T03:05:34;54.88;;;36.17;;
43994;SDS011;51687;52.160;5.298;2022-12-18T03:08:14;60.72;;;36.00;;
43994;SDS011;51687;52.160;5.298;2022-12-18T03:10:47;55.38;;;36.03;;
43994;SDS011;51687;52.160;5.298;2022-12-18T03:13:21;53.88;;;35.28;;
43994;SDS011;51687;52.160;5.298;2022-12-18T03:15:54;52.10;;;34.75;;
43994;SDS011;51687;52.160;5.298;2022-12-18T03:18:33;48.95;;;35.47;;
43994;SDS011;51687;52.160;5.298;2022-12-18T03:21:07;51.40;;;34.63;;
43994;SDS011;51687;52.160;5.298;2022-12-18T03:23:39;48.33;;;33.40;;
43994;SDS011;51687;52.160;5.298;2022-12-18T03:26:10;54.45;;;36.38;;
43994;SDS011;51687;52.160;5.298;2022-12-18T03:28:50;48.15;;;34.95;;
43994;SDS011;51687;52.160;5.298;2022-12-18T03:31:23;50.92;;;34.83;;
43994;SDS011;51687;52.160;5.298;2022-12-18T03:33:53;53.90;;;36.50;;
43994;SDS011;51687;52.160;5.298;2022-12-18T03:36:29;50.90;;;34.10;;
43994;SDS011;51687;52.160;5.298;2022-12-18T03:38:56;47.00;;;34.10;;
43994;SDS011;51687;52.160;5.298;2022-12-18T03:41:28;52.28;;;35.53;;
43994;SDS011;51687;52.160;5.298;2022-12-18T03:46:58;49.90;;;33.38;;
43994;SDS011;51687;52.160;5.298;2022-12-18T03:49:57;55.20;;;34.63;;
43994;SDS011;51687;52.160;5.298;2022-12-18T03:52:57;55.95;;;35.28;;
43994;SDS011;51687;52.160;5.298;2022-12-18T03:55:47;49.60;;;34.17;;
43994;SDS011;51687;52.160;5.298;2022-12-18T03:58:17;49.50;;;33.97;;
43994;SDS011;51687;52.160;5.298;2022-12-18T04:00:46;47.65;;;32.35;;
43994;SDS011;51687;52.160;5.298;2022-12-18T04:05:50;50.00;;;33.90;;
43994;SDS011;51687;52.160;5.298;2022-12-18T04:08:20;45.47;;;32.47;;
43994;SDS011;51687;52.160;5.298;2022-12-18T04:10:48;46.88;;;33.53;;
43994;SDS011;51687;52.160;5.298;2022-12-18T04:13:21;44.10;;;31.67;;
43994;SDS011;51687;52.160;5.298;2022-12-18T04:15:49;46.20;;;31.98;;
43994;SDS011;51687;52.160;5.298;2022-12-18T04:18:16;43.13;;;32.63;;
43994;SDS011;51687;52.160;5.298;2022-12-18T04:20:43;41.15;;;31.10;;
43994;SDS011;51687;52.160;5.298;2022-12-18T04:23:09;41.35;;;30.40;;
43994;SDS011;51687;52.160;5.298;2022-12-18T04:25:36;35.33;;;29.08;;
43994;SDS011;51687;52.160;5.298;2022-12-18T04:28:03;43.35;;;29.63;;
43994;SDS011;51687;52.160;5.298;2022-12-18T04:30:29;39.97;;;28.52;;
43994;SDS011;51687;52.160;5.298;2022-12-18T04:32:56;36.88;;;28.67;;
43994;SDS011;51687;52.160;5.298;2022-12-18T04:35:23;42.90;;;31.20;;
43994;SDS011;51687;52.160;5.298;2022-12-18T04:37:49;38.33;;;28.67;;
43994;SDS011;51687;52.160;5.298;2022-12-18T04:40:16;31.92;;;26.60;;
43994;SDS011;51687;52.160;5.298;2022-12-18T04:42:43;36.17;;;27.58;;
43994;SDS011;51687;52.160;5.298;2022-12-18T04:45:10;33.40;;;27.33;;
43994;SDS011;51687;52.160;5.298;2022-12-18T04:47:36;34.53;;;27.75;;
43994;SDS011;51687;52.160;5.298;2022-12-18T04:50:03;33.50;;;26.70;;
43994;SDS011;51687;52.160;5.298;2022-12-18T04:52:30;34.25;;;25.55;;
43994;SDS011;51687;52.160;5.298;2022-12-18T04:54:57;33.20;;;25.77;;
43994;SDS011;51687;52.160;5.298;2022-12-18T04:57:24;29.90;;;25.00;;
43994;SDS011;51687;52.160;5.298;2022-12-18T04:59:51;29.50;;;25.40;;
43994;SDS011;51687;52.160;5.298;2022-12-18T05:02:17;29.85;;;23.90;;
43994;SDS011;51687;52.160;5.298;2022-12-18T05:04:44;26.30;;;23.13;;
43994;SDS011;51687;52.160;5.298;2022-12-18T05:07:11;27.48;;;23.88;;
43994;SDS011;51687;52.160;5.298;2022-12-18T05:09:38;29.35;;;24.08;;
43994;SDS011;51687;52.160;5.298;2022-12-18T05:12:04;27.48;;;22.90;;
43994;SDS011;51687;52.160;5.298;2022-12-18T05:14:31;25.88;;;22.65;;
43994;SDS011;51687;52.160;5.298;2022-12-18T05:16:59;24.60;;;22.00;;
43994;SDS011;51687;52.160;5.298;2022-12-18T05:19:26;26.48;;;22.02;;
43994;SDS011;51687;52.160;5.298;2022-12-18T05:21:53;25.00;;;22.52;;
43994;SDS011;51687;52.160;5.298;2022-12-18T05:24:20;25.05;;;22.38;;
43994;SDS011;51687;52.160;5.298;2022-12-18T05:26:46;24.83;;;22.15;;
43994;SDS011;51687;52.160;5.298;2022-12-18T05:29:13;22.70;;;20.40;;
43994;SDS011;51687;52.160;5.298;2022-12-18T05:31:40;25.00;;;21.42;;
43994;SDS011;51687;52.160;5.298;2022-12-18T05:34:08;23.92;;;20.60;;
43994;SDS011;51687;52.160;5.298;2022-12-18T05:36:36;22.58;;;20.08;;
43994;SDS011;51687;52.160;5.298;2022-12-18T05:39:03;25.80;;;20.45;;
43994;SDS011;51687;52.160;5.298;2022-12-18T05:41:31;22.48;;;20.38;;
43994;SDS011;51687;52.160;5.298;2022-12-18T05:43:58;22.65;;;20.55;;
43994;SDS011;51687;52.160;5.298;2022-12-18T05:46:25;21.48;;;19.15;;
43994;SDS011;51687;52.160;5.298;2022-12-18T05:48:52;23.90;;;21.40;;
43994;SDS011;51687;52.160;5.298;2022-12-18T05:51:20;21.90;;;19.60;;
43994;SDS011;51687;52.160;5.298;2022-12-18T05:53:47;23.20;;;20.58;;
43994;SDS011;51687;52.160;5.298;2022-12-18T05:56:15;22.40;;;20.23;;
43994;SDS011;51687;52.160;5.298;2022-12-18T05:58:50;21.58;;;19.33;;
43994;SDS011;51687;52.160;5.298;2022-12-18T06:01:18;21.17;;;19.00;;
43994;SDS011;51687;52.160;5.298;2022-12-18T06:03:47;22.40;;;20.30;;
43994;SDS011;51687;52.160;5.298;2022-12-18T06:06:19;22.10;;;19.88;;
43994;SDS011;51687;52.160;5.298;2022-12-18T06:08:51;22.08;;;19.92;;
43994;SDS011;51687;52.160;5.298;2022-12-18T06:11:20;21.13;;;18.90;;
43994;SDS011;51687;52.160;5.298;2022-12-18T06:13:50;21.00;;;19.08;;
43994;SDS011;51687;52.160;5.298;2022-12-18T06:16:24;21.58;;;19.40;;
43994;SDS011;51687;52.160;5.298;2022-12-18T06:18:51;22.95;;;20.65;;
43994;SDS011;51687;52.160;5.298;2022-12-18T06:21:18;22.88;;;20.58;;
43994;SDS011;51687;52.160;5.298;2022-12-18T06:23:44;23.10;;;20.70;;
43994;SDS011;51687;52.160;5.298;2022-12-18T06:26:11;24.15;;;21.45;;
43994;SDS011;51687;52.160;5.298;2022-12-18T06:28:38;22.83;;;20.48;;
43994;SDS011;51687;52.160;5.298;2022-12-18T06:31:05;23.25;;;20.95;;
43994;SDS011;51687;52.160;5.298;2022-12-18T06:33:32;22.33;;;20.02;;
43994;SDS011;51687;52.160;5.298;2022-12-18T06:36:02;23.52;;;21.15;;
43994;SDS011;51687;52.160;5.298;2022-12-18T06:38:32;23.20;;;21.10;;
43994;SDS011;51687;52.160;5.298;2022-12-18T06:40:59;24.60;;;22.10;;
43994;SDS011;51687;52.160;5.298;2022-12-18T06:43:26;22.58;;;20.48;;
43994;SDS011;51687;52.160;5.298;2022-12-18T06:45:57;23.55;;;20.48;;
43994;SDS011;51687;52.160;5.298;2022-12-18T06:48:27;23.98;;;21.42;;
43994;SDS011;51687;52.160;5.298;2022-12-18T06:50:53;24.23;;;21.20;;
43994;SDS011;51687;52.160;5.298;2022-12-18T06:53:20;21.60;;;19.35;;
43994;SDS011;51687;52.160;5.298;2022-12-18T06:55:47;21.73;;;19.63;;
43994;SDS011;51687;52.160;5.298;2022-12-18T06:58:14;22.48;;;20.30;;
43994;SDS011;51687;52.160;5.298;2022-12-18T07:00:41;23.45;;;19.85;;
43994;SDS011;51687;52.160;5.298;2022-12-18T07:03:09;23.67;;;20.02;;
43994;SDS011;51687;52.160;5.298;2022-12-18T07:05:40;21.30;;;19.10;;
43994;SDS011;51687;52.160;5.298;2022-12-18T07:08:07;21.27;;;19.33;;
43994;SDS011;51687;52.160;5.298;2022-12-18T07:10:44;22.30;;;19.90;;
43994;SDS011;51687;52.160;5.298;2022-12-18T07:13:15;21.35;;;19.05;;
43994;SDS011;51687;52.160;5.298;2022-12-18T07:15:42;20.55;;;18.45;;
43994;SDS011;51687;52.160;5.298;2022-12-18T07:18:10;21.35;;;19.30;;
43994;SDS011;51687;52.160;5.298;2022-12-18T07:20:37;22.10;;;19.98;;
43994;SDS011;51687;52.160;5.298;2022-12-18T07:23:04;20.67;;;18.90;;
43994;SDS011;51687;52.160;5.298;2022-12-18T07:25:34;20.55;;;18.35;;
43994;SDS011;51687;52.160;5.298;2022-12-18T07:28:02;21.83;;;19.65;;
43994;SDS011;51687;52.160;5.298;2022-12-18T07:30:29;20.52;;;18.73;;
43994;SDS011;51687;52.160;5.298;2022-12-18T07:32:56;19.92;;;18.20;;
43994;SDS011;51687;52.160;5.298;2022-12-18T07:35:22;20.35;;;18.35;;
43994;SDS011;51687;52.160;5.298;2022-12-18T07:37:50;20.45;;;18.52;;
43994;SDS011;51687;52.160;5.298;2022-12-18T07:40:17;20.90;;;18.77;;
43994;SDS011;51687;52.160;5.298;2022-12-18T07:42:43;20.98;;;18.88;;
43994;SDS011;51687;52.160;5.298;2022-12-18T07:45:10;22.10;;;19.50;;
43994;SDS011;51687;52.160;5.298;2022-12-18T07:47:37;19.90;;;18.20;;
43994;SDS011;51687;52.160;5.298;2022-12-18T07:50:04;22.52;;;19.50;;
43994;SDS011;51687;52.160;5.298;2022-12-18T07:52:31;20.60;;;18.70;;
43994;SDS011;51687;52.160;5.298;2022-12-18T07:54:59;21.33;;;18.88;;
43994;SDS011;51687;52.160;5.298;2022-12-18T07:57:25;22.38;;;18.98;;
43994;SDS011;51687;52.160;5.298;2022-12-18T08:00:15;20.33;;;18.35;;
43994;SDS011;51687;52.160;5.298;2022-12-18T08:02:42;21.60;;;19.48;;
43994;SDS011;51687;52.160;5.298;2022-12-18T08:05:09;20.55;;;18.38;;
43994;SDS011;51687;52.160;5.298;2022-12-18T08:07:36;21.83;;;19.50;;
43994;SDS011;51687;52.160;5.298;2022-12-18T08:10:03;20.95;;;18.85;;
43994;SDS011;51687;52.160;5.298;2022-12-18T08:12:31;20.50;;;18.42;;
43994;SDS011;51687;52.160;5.298;2022-12-18T08:14:58;23.85;;;19.42;;
43994;SDS011;51687;52.160;5.298;2022-12-18T08:17:25;21.33;;;19.20;;
43994;SDS011;51687;52.160;5.298;2022-12-18T08:19:51;21.92;;;19.77;;
43994;SDS011;51687;52.160;5.298;2022-12-18T08:22:18;21.48;;;19.55;;
43994;SDS011;51687;52.160;5.298;2022-12-18T08:27:14;21.73;;;19.55;;
43994;SDS011;51687;52.160;5.298;2022-12-18T08:29:56;22.83;;;19.70;;
43994;SDS011;51687;52.160;5.298;2022-12-18T08:32:24;20.85;;;18.75;;
43994;SDS011;51687;52.160;5.298;2022-12-18T08:37:19;21.15;;;18.90;;
43994;SDS011;51687;52.160;5.298;2022-12-18T08:39:46;21.27;;;19.35;;
43994;SDS011;51687;52.160;5.298;2022-12-18T08:42:12;21.92;;;19.75;;
43994;SDS011;51687;52.160;5.298;2022-12-18T08:44:58;19.85;;;17.88;;
43994;SDS011;51687;52.160;5.298;2022-12-18T08:47:25;21.15;;;19.00;;
43994;SDS011;51687;52.160;5.298;2022-12-18T08:49:52;22.67;;;20.23;;
43994;SDS011;51687;52.160;5.298;2022-12-18T08:52:19;20.27;;;18.20;;
43994;SDS011;51687;52.160;5.298;2022-12-18T08:54:45;20.85;;;18.77;;
43994;SDS011;51687;52.160;5.298;2022-12-18T08:57:12;22.67;;;18.85;;
43994;SDS011;51687;52.160;5.298;2022-12-18T08:59:39;22.00;;;18.45;;
43994;SDS011;51687;52.160;5.298;2022-12-18T09:02:05;21.15;;;19.02;;
43994;SDS011;51687;52.160;5.298;2022-12-18T09:04:32;20.20;;;18.15;;
43994;SDS011;51687;52.160;5.298;2022-12-18T09:06:59;19.95;;;17.95;;
43994;SDS011;51687;52.160;5.298;2022-12-18T09:09:26;21.92;;;19.05;;
43994;SDS011;51687;52.160;5.298;2022-12-18T09:11:53;23.33;;;17.90;;
43994;SDS011;51687;52.160;5.298;2022-12-18T09:14:19;21.65;;;18.27;;
43994;SDS011;51687;52.160;5.298;2022-12-18T09:16:46;20.45;;;18.48;;
43994;SDS011;51687;52.160;5.298;2022-12-18T09:19:13;19.67;;;17.90;;
43994;SDS011;51687;52.160;5.298;2022-12-18T09:21:40;19.52;;;17.55;;
43994;SDS011;51687;52.160;5.298;2022-12-18T09:24:13;20.60;;;18.35;;
43994;SDS011;51687;52.160;5.298;2022-12-18T09:26:40;18.80;;;17.00;;
43994;SDS011;51687;52.160;5.298;2022-12-18T09:29:08;19.50;;;17.38;;
43994;SDS011;51687;52.160;5.298;2022-12-18T09:31:36;20.15;;;18.13;;
43994;SDS011;51687;52.160;5.298;2022-12-18T09:34:04;20.05;;;17.95;;
43994;SDS011;51687;52.160;5.298;2022-12-18T09:36:32;19.77;;;17.93;;
43994;SDS011;51687;52.160;5.298;2022-12-18T09:38:59;21.55;;;18.60;;
43994;SDS011;51687;52.160;5.298;2022-12-18T09:41:40;19.15;;;17.35;;
43994;SDS011;51687;52.160;5.298;2022-12-18T09:44:17;19.20;;;17.40;;
43994;SDS011;51687;52.160;5.298;2022-12-18T09:47:22;18.38;;;16.67;;
43994;SDS011;51687;52.160;5.298;2022-12-18T09:49:58;18.58;;;16.88;;
43994;SDS011;51687;52.160;5.298;2022-12-18T09:55:05;17.60;;;16.00;;
43994;SDS011;51687;52.160;5.298;2022-12-18T09:57:38;18.50;;;16.80;;
43994;SDS011;51687;52.160;5.298;2022-12-18T10:00:21;17.88;;;16.27;;
43994;SDS011;51687;52.160;5.298;2022-12-18T10:02:53;17.88;;;16.17;;
43994;SDS011;51687;52.160;5.298;2022-12-18T10:10:52;19.33;;;17.63;;
43994;SDS011;51687;52.160;5.298;2022-12-18T10:16:14;17.85;;;16.33;;
43994;SDS011;51687;52.160;5.298;2022-12-18T10:21:36;16.90;;;15.40;;
43994;SDS011;51687;52.160;5.298;2022-12-18T10:24:26;16.83;;;15.13;;
43994;SDS011;51687;52.160;5.298;2022-12-18T10:27:08;17.90;;;15.30;;
43994;SDS011;51687;52.160;5.298;2022-12-18T10:29:40;16.40;;;14.80;;
43994;SDS011;51687;52.160;5.298;2022-12-18T10:34:40;14.05;;;12.50;;
43994;SDS011;51687;52.160;5.298;2022-12-18T10:37:09;16.92;;;15.18;;
43994;SDS011;51687;52.160;5.298;2022-12-18T10:39:43;15.48;;;13.98;;
43994;SDS011;51687;52.160;5.298;2022-12-18T10:42:17;15.52;;;14.18;;
43994;SDS011;51687;52.160;5.298;2022-12-18T10:44:45;15.88;;;14.40;;
43994;SDS011;51687;52.160;5.298;2022-12-18T10:47:14;14.63;;;13.23;;
43994;SDS011;51687;52.160;5.298;2022-12-18T10:49:49;16.05;;;14.75;;
43994;SDS011;51687;52.160;5.298;2022-12-18T10:52:19;16.13;;;14.73;;
43994;SDS011;51687;52.160;5.298;2022-12-18T10:54:52;14.75;;;13.45;;
43994;SDS011;51687;52.160;5.298;2022-12-18T11:02:45;14.52;;;13.20;;
43994;SDS011;51687;52.160;5.298;2022-12-18T11:07:56;13.82;;;12.68;;
43994;SDS011;51687;52.160;5.298;2022-12-18T11:13:15;13.88;;;12.77;;
43994;SDS011;51687;52.160;5.298;2022-12-18T11:15:46;13.82;;;12.57;;
43994;SDS011;51687;52.160;5.298;2022-12-18T11:18:55;14.35;;;13.05;;
43994;SDS011;51687;52.160;5.298;2022-12-18T11:21:07;14.13;;;12.93;;
43994;SDS011;51687;52.160;5.298;2022-12-18T11:23:36;14.63;;;13.32;;
43994;SDS011;51687;52.160;5.298;2022-12-18T11:26:09;15.25;;;13.93;;
43994;SDS011;51687;52.160;5.298;2022-12-18T11:31:09;15.00;;;13.70;;
43994;SDS011;51687;52.160;5.298;2022-12-18T11:33:42;14.23;;;13.02;;
43994;SDS011;51687;52.160;5.298;2022-12-18T11:36:36;15.23;;;13.80;;
43994;SDS011;51687;52.160;5.298;2022-12-18T11:39:31;14.20;;;13.00;;
43994;SDS011;51687;52.160;5.298;2022-12-18T11:47:11;13.38;;;12.27;;
43994;SDS011;51687;52.160;5.298;2022-12-18T11:49:49;14.18;;;12.88;;
43994;SDS011;51687;52.160;5.298;2022-12-18T11:52:21;14.00;;;12.80;;
43994;SDS011;51687;52.160;5.298;2022-12-18T11:54:51;15.60;;;14.20;;
43994;SDS011;51687;52.160;5.298;2022-12-18T12:00:02;13.88;;;12.70;;
43994;SDS011;51687;52.160;5.298;2022-12-18T12:07:49;14.55;;;13.20;;
43994;SDS011;51687;52.160;5.298;2022-12-18T12:10:41;13.77;;;12.57;;
43994;SDS011;51687;52.160;5.298;2022-12-18T12:15:49;12.88;;;11.77;;
43994;SDS011;51687;52.160;5.298;2022-12-18T12:26:57;17.25;;;12.70;;
43994;SDS011;51687;52.160;5.298;2022-12-18T12:32:49;13.65;;;12.45;;
43994;SDS011;51687;52.160;5.298;2022-12-18T12:38:22;13.80;;;12.70;;
43994;SDS011;51687;52.160;5.298;2022-12-18T12:40:56;13.73;;;12.63;;
43994;SDS011;51687;52.160;5.298;2022-12-18T12:43:42;14.27;;;13.13;;
43994;SDS011;51687;52.160;5.298;2022-12-18T12:46:17;13.70;;;12.55;;
43994;SDS011;51687;52.160;5.298;2022-12-18T12:51:32;14.68;;;13.48;;
43994;SDS011;51687;52.160;5.298;2022-12-18T12:54:08;14.82;;;13.52;;
43994;SDS011;51687;52.160;5.298;2022-12-18T12:56:54;14.27;;;12.98;;
43994;SDS011;51687;52.160;5.298;2022-12-18T12:59:35;13.77;;;12.48;;
43994;SDS011;51687;52.160;5.298;2022-12-18T13:02:22;14.05;;;12.75;;
43994;SDS011;51687;52.160;5.298;2022-12-18T13:05:26;15.00;;;13.48;;
43994;SDS011;51687;52.160;5.298;2022-12-18T13:08:09;13.75;;;12.50;;
43994;SDS011;51687;52.160;5.298;2022-12-18T13:10:40;14.85;;;13.32;;
43994;SDS011;51687;52.160;5.298;2022-12-18T13:20:50;14.32;;;13.13;;
43994;SDS011;51687;52.160;5.298;2022-12-18T13:23:32;15.07;;;13.70;;
43994;SDS011;51687;52.160;5.298;2022-12-18T13:31:12;16.33;;;14.88;;
43994;SDS011;51687;52.160;5.298;2022-12-18T13:36:32;16.42;;;15.05;;
43994;SDS011;51687;52.160;5.298;2022-12-18T13:41:49;16.83;;;15.32;;
43994;SDS011;51687;52.160;5.298;2022-12-18T13:47:26;15.27;;;13.93;;
43994;SDS011;51687;52.160;5.298;2022-12-18T13:49:59;16.00;;;14.70;;
43994;SDS011;51687;52.160;5.298;2022-12-18T13:52:27;15.73;;;14.40;;
43994;SDS011;51687;52.160;5.298;2022-12-18T13:55:00;15.63;;;14.23;;
43994;SDS011;51687;52.160;5.298;2022-12-18T13:57:32;14.60;;;13.30;;
43994;SDS011;51687;52.160;5.298;2022-12-18T14:00:23;15.90;;;14.40;;
43994;SDS011;51687;52.160;5.298;2022-12-18T14:02:51;16.38;;;14.98;;
43994;SDS011;51687;52.160;5.298;2022-12-18T14:08:10;16.55;;;15.02;;
43994;SDS011;51687;52.160;5.298;2022-12-18T14:10:41;16.60;;;15.20;;
43994;SDS011;51687;52.160;5.298;2022-12-18T14:15:54;15.55;;;14.25;;
43994;SDS011;51687;52.160;5.298;2022-12-18T14:18:29;16.35;;;14.75;;
43994;SDS011;51687;52.160;5.298;2022-12-18T14:20:59;17.13;;;15.48;;
43994;SDS011;51687;52.160;5.298;2022-12-18T14:25:55;14.82;;;13.63;;
43994;SDS011;51687;52.160;5.298;2022-12-18T14:28:28;16.52;;;15.02;;
43994;SDS011;51687;52.160;5.298;2022-12-18T14:30:55;17.55;;;16.02;;
43994;SDS011;51687;52.160;5.298;2022-12-18T14:33:27;16.70;;;15.30;;
43994;SDS011;51687;52.160;5.298;2022-12-18T14:41:03;16.47;;;14.77;;
43994;SDS011;51687;52.160;5.298;2022-12-18T14:43:38;17.50;;;16.00;;
43994;SDS011;51687;52.160;5.298;2022-12-18T14:51:24;17.65;;;16.05;;
43994;SDS011;51687;52.160;5.298;2022-12-18T14:53:59;17.63;;;16.02;;
43994;SDS011;51687;52.160;5.298;2022-12-18T14:56:33;18.63;;;16.80;;
43994;SDS011;51687;52.160;5.298;2022-12-18T14:59:06;18.02;;;16.23;;
43994;SDS011;51687;52.160;5.298;2022-12-18T15:04:30;18.65;;;16.85;;
43994;SDS011;51687;52.160;5.298;2022-12-18T15:07:02;17.23;;;15.52;;
43994;SDS011;51687;52.160;5.298;2022-12-18T15:09:31;17.52;;;16.02;;
43994;SDS011;51687;52.160;5.298;2022-12-18T15:11:59;17.55;;;15.95;;
43994;SDS011;51687;52.160;5.298;2022-12-18T15:17:04;17.80;;;16.27;;
43994;SDS011;51687;52.160;5.298;2022-12-18T15:19:46;16.42;;;14.90;;
43994;SDS011;51687;52.160;5.298;2022-12-18T15:22:25;17.23;;;15.65;;
43994;SDS011;51687;52.160;5.298;2022-12-18T15:24:53;17.92;;;16.23;;
43994;SDS011;51687;52.160;5.298;2022-12-18T15:32:35;17.58;;;16.00;;
43994;SDS011;51687;52.160;5.298;2022-12-18T15:37:39;16.40;;;14.90;;
43994;SDS011;51687;52.160;5.298;2022-12-18T15:40:08;18.73;;;16.67;;
43994;SDS011;51687;52.160;5.298;2022-12-18T15:42:42;17.35;;;15.57;;
43994;SDS011;51687;52.160;5.298;2022-12-18T15:45:28;17.35;;;15.65;;
43994;SDS011;51687;52.160;5.298;2022-12-18T15:47:55;17.88;;;16.08;;
43994;SDS011;51687;52.160;5.298;2022-12-18T15:50:22;18.15;;;16.55;;
43994;SDS011;51687;52.160;5.298;2022-12-18T15:52:50;18.55;;;16.80;;
43994;SDS011;51687;52.160;5.298;2022-12-18T15:55:19;18.92;;;17.13;;
43994;SDS011;51687;52.160;5.298;2022-12-18T15:58:07;17.85;;;16.25;;
43994;SDS011;51687;52.160;5.298;2022-12-18T16:00:36;17.48;;;16.02;;
43994;SDS011;51687;52.160;5.298;2022-12-18T16:03:05;20.35;;;17.25;;
43994;SDS011;51687;52.160;5.298;2022-12-18T16:05:32;18.37;;;16.63;;
43994;SDS011;51687;52.160;5.298;2022-12-18T16:07:59;18.45;;;16.58;;
43994;SDS011;51687;52.160;5.298;2022-12-18T16:10:26;19.27;;;17.38;;
43994;SDS011;51687;52.160;5.298;2022-12-18T16:12:53;17.98;;;16.27;;
43994;SDS011;51687;52.160;5.298;2022-12-18T16:15:20;18.92;;;17.02;;
43994;SDS011;51687;52.160;5.298;2022-12-18T16:17:50;18.00;;;16.25;;
43994;SDS011;51687;52.160;5.298;2022-12-18T16:20:19;19.05;;;17.25;;
43994;SDS011;51687;52.160;5.298;2022-12-18T16:22:47;18.67;;;16.98;;
43994;SDS011;51687;52.160;5.298;2022-12-18T16:25:17;19.90;;;18.10;;
43994;SDS011;51687;52.160;5.298;2022-12-18T16:27:49;18.38;;;16.60;;
43994;SDS011;51687;52.160;5.298;2022-12-18T16:30:18;18.85;;;17.13;;
43994;SDS011;51687;52.160;5.298;2022-12-18T16:32:46;19.23;;;17.52;;
43994;SDS011;51687;52.160;5.298;2022-12-18T16:35:13;19.75;;;17.98;;
43994;SDS011;51687;52.160;5.298;2022-12-18T16:37:41;21.13;;;19.13;;
43994;SDS011;51687;52.160;5.298;2022-12-18T16:40:10;22.35;;;19.98;;
43994;SDS011;51687;52.160;5.298;2022-12-18T16:42:40;21.17;;;18.95;;
43994;SDS011;51687;52.160;5.298;2022-12-18T16:45:08;19.60;;;17.75;;
43994;SDS011;51687;52.160;5.298;2022-12-18T16:47:37;22.40;;;18.08;;
43994;SDS011;51687;52.160;5.298;2022-12-18T16:50:05;20.02;;;18.20;;
43994;SDS011;51687;52.160;5.298;2022-12-18T16:52:33;21.27;;;19.27;;
43994;SDS011;51687;52.160;5.298;2022-12-18T16:55:00;20.52;;;18.50;;
43994;SDS011;51687;52.160;5.298;2022-12-18T16:57:26;22.77;;;20.48;;
43994;SDS011;51687;52.160;5.298;2022-12-18T16:59:53;22.63;;;20.48;;
43994;SDS011;51687;52.160;5.298;2022-12-18T17:02:25;19.80;;;17.45;;
43994;SDS011;51687;52.160;5.298;2022-12-18T17:04:54;19.45;;;17.48;;
43994;SDS011;51687;52.160;5.298;2022-12-18T17:07:21;20.70;;;18.80;;
43994;SDS011;51687;52.160;5.298;2022-12-18T17:09:49;20.85;;;18.73;;
43994;SDS011;51687;52.160;5.298;2022-12-18T17:12:16;21.65;;;19.73;;
43994;SDS011;51687;52.160;5.298;2022-12-18T17:14:43;22.73;;;20.70;;